• Join FlightAware (Why Join?)
  • Login
  • US Flag 
05:11PM EDT


 

Airport Tracker/Info


-or-


 

Live Flight TrackerFlight Track Log ✈ CES2376 ✈ 07-Jul-2013 ✈ ZLGM / GOQ - ZLXY / XIY

Flight Track Log - Related Links

Times and Time Zones

All times are in EDT time to prevent confusion due to time zone crossing. See the CES2376 flight status page for this flight to view local times or setup timezone preferences in your user account.

Time Position Orientation Groundspeed Altitude Reporting Facility
EDT Latitude Longitude Course Direction KTS MPH feet Rate Location/Type
04:52AM 36.2437 96.5830 96° East  Level Estimated
04:53AM 36.2306 96.7209 97° East  Level Estimated
04:54AM 36.2173 96.8588 97° East  Level Estimated
04:55AM 36.2038 96.9966 97° East  Level Estimated
04:56AM 36.1902 97.1344 97° East  Level Estimated
04:57AM 36.1765 97.2721 97° East  Level Estimated
04:58AM 36.1626 97.4098 97° East  Level Estimated
04:59AM 36.1485 97.5474 97° East  Level Estimated
05:00AM 36.1342 97.6850 97° East  Level Estimated
05:01AM 36.1198 97.8225 97° East  Level Estimated
05:02AM 36.1053 97.9600 97° East  Level Estimated
05:03AM 36.0906 98.0975 98° East  Level Estimated
05:04AM 36.0757 98.2348 98° East  Level Estimated
05:05AM 36.0607 98.3721 98° East  Level Estimated
05:06AM 36.0455 98.5094 98° East  Level Estimated
05:07AM 36.0302 98.6466 98° East  Level Estimated
05:08AM 36.0147 98.7838 98° East  Level Estimated
05:09AM 35.9990 98.9209 98° East  Level Estimated
05:10AM 35.9832 99.0580 98° East  Level Estimated
05:11AM 35.9673 99.1949 98° East  Level Estimated
05:12AM 35.9511 99.3319 98° East  Level Estimated
05:13AM 35.9349 99.4688 98° East  Level Estimated
05:14AM 35.9184 99.6056 98° East  Level Estimated
05:15AM 35.9019 99.7424 98° East  Level Estimated
05:16AM 35.8851 99.8791 99° East  Level Estimated
05:17AM 35.8682 100.0158 99° East  Level Estimated
05:18AM 35.8512 100.1524 99° East  Level Estimated
05:19AM 35.8340 100.2889 99° East  Level Estimated
05:20AM 35.8166 100.4254 99° East  Level Estimated
05:21AM 35.7991 100.5618 99° East  Level Estimated
05:22AM 35.7815 100.6982 99° East  Level Estimated
05:23AM 35.7636 100.8345 99° East  Level Estimated
05:24AM 35.7457 100.9707 99° East  Level Estimated
05:25AM 35.7276 101.1069 99° East  Level Estimated
05:26AM 35.7093 101.2430 99° East  Level Estimated
05:27AM 35.6908 101.3790 99° East  Level Estimated
05:28AM 35.6723 101.5150 100° East  Level Estimated
05:29AM 35.6535 101.6509 100° East  Level Estimated
05:30AM 35.6346 101.7868 100° East  Level Estimated
05:31AM 35.6156 101.9226 100° East  Level Estimated
05:32AM 35.5964 102.0583 100° East  Level Estimated
05:33AM 35.5770 102.1940 100° East  Level Estimated
05:34AM 35.5575 102.3296 100° East  Level Estimated
05:35AM 35.5379 102.4651 100° East  Level Estimated
05:36AM 35.5181 102.6006 100° East  Level Estimated
05:37AM 35.4981 102.7360 100° East  Level Estimated
05:38AM 35.4781 102.8713 100° East  Level Estimated
05:39AM 35.4578 103.0066 100° East  Level Estimated
05:40AM 35.4374 103.1418 100° East  Level Estimated
05:41AM 35.4168 103.2769 101° East  Level Estimated
05:42AM 35.3961 103.4120 101° East  Level Estimated
05:43AM 35.3753 103.5470 101° East  Level Estimated
05:44AM 35.3542 103.6819 101° East  Level Estimated
05:45AM 35.3331 103.8168 101° East  Level Estimated
05:46AM 35.3118 103.9515 101° East  Level Estimated
05:47AM 35.2903 104.0863 101° East  Level Estimated
05:48AM 35.2687 104.2209 101° East  Level Estimated
05:49AM 35.2470 104.3555 101° East  Level Estimated
05:50AM 35.2251 104.4899 101° East  Level Estimated
05:51AM 35.2030 104.6244 101° East  Level Estimated
05:52AM 35.1808 104.7587 101° East  Level Estimated
05:53AM 35.1585 104.8930 101° East  Level Estimated
05:54AM 35.1360 105.0272 102° East  Level Estimated
05:55AM 35.1133 105.1613 102° East  Level Estimated
05:56AM 35.0905 105.2953 102° East  Level Estimated
05:57AM 35.0676 105.4293 102° East  Level Estimated
05:58AM 35.0445 105.5632 102° East  Level Estimated
05:59AM 35.0213 105.6970 102° East  Level Estimated
06:00AM 34.9979 105.8308 102° East  Level Estimated
06:01AM 34.9744 105.9644 102° East  Level Estimated
06:02AM 34.9507 106.0980 102° East  Level Estimated
06:03AM 34.9269 106.2315 102° East  Level Estimated
06:04AM 34.9029 106.3650 102° East  Level Estimated
06:05AM 34.8788 106.4983 102° East  Level Estimated
06:06AM 34.8545 106.6316 102° East  Level Estimated
06:07AM 34.8301 106.7648 103° East  Level Estimated
06:08AM 34.8056 106.8979 103° East  Level Estimated
06:09AM 34.7809 107.0310 103° East  Level Estimated
06:10AM 34.7561 107.1639 103° East  Level Estimated
06:11AM 34.7311 107.2968 103° East  Level Estimated
06:12AM 34.7059 107.4296 103° East  Level Estimated
06:13AM 34.6807 107.5623 103° East  Level Estimated
06:14AM 34.6537 107.7032 103° East  Level Estimated
06:15AM 34.6265 107.8439 103° East  Level Estimated
06:16AM 34.5992 107.9846 103° East  Level Estimated
06:17AM 34.5718 108.1252 103° East  Level Estimated
06:18AM 34.5441 108.2656 103° East  Level Estimated
06:19AM 34.5163 108.4060 103° East  Level Estimated
06:20AM 34.4883 108.5463 104° East  Level Estimated
06:21AM 34.4602 108.6865 104° East  Level Estimated
06:22AM 34.4471 108.7516 104° East  Level Estimated
06:23AM 34.4471 108.7516 121° Southeast  Level Estimated
06:24AM 34.4471 108.7516 121° Southeast  Level Estimated
06:25AM 34.4471 108.7516 121° Southeast  Level Estimated
06:26AM 34.4471 108.7516 121° Southeast  Level Estimated
06:27AM 34.4471 108.7516 121° Southeast  Level Estimated
06:28AM 34.4471 108.7516 121° Southeast  Level Estimated
06:29AM 34.4471 108.7516 121° Southeast  Level Estimated
06:30AM 34.4471 108.7516 121° Southeast  Level Estimated
06:31AM 34.4471 108.7516 121° Southeast  Level Estimated
06:32AM 34.4471 108.7516 121° Southeast  Level Estimated
06:33AM 34.4471 108.7516 121° Southeast  Level Estimated